Pago Pago, AS

1:54 PM SST on September 15, 2014 (GMT -1100)
Bradshaw Army Air Field | Change Station
CLOSE
Current Station
Airport
Location: Bradshaw AFB,
Elevation: 6191 ft
Nearby Weather Stations

Elev 6191 ft 19.76 °N, 155.55 °W | Updated 10 minutes ago

Mostly Cloudy
Mostly Cloudy
66 °F
Feels Like 66 °F
N
13
Wind Variable Wind from WSW
Gusts 20 mph

Today
High -- | Low -- °F
--% Chance of Precip.
Yesterday
High -- | Low -- °F
Precip. -- in
6:17 AM 6:18 PM
Waning Gibbous, 50% visible
Pressure 30.26 in
Visibility 10.0 miles
Clouds Few 3200 ft
Mostly Cloudy 3900 ft
Mostly Cloudy 6500 ft
Dew Point 61 °F
Humidity 83%
Rainfall 0.00 in
Snow Depth Not available.
UV 5 out of 12
Pollen Not available.
Air Quality Not available.
Flu Activity Not available.
SPECI PHSF 160044Z AUTO 24011G17KT 10SM FEW032 BKN039 BKN065 19/16 A3026 RMK AO2

More Conditions Fewer Conditions

Pressure 30.26 in
Visibility 10.0 miles
Clouds Few 3200 ft
Mostly Cloudy 3900 ft
Mostly Cloudy 6500 ft
Dew Point 61 °F
Humidity 83%
Rainfall 0.00 in
Snow Depth Not available.
UV 5 out of 12
Pollen Not available.
Air Quality Not available.
Flu Activity Not available.
SPECI PHSF 160044Z AUTO 24011G17KT 10SM FEW032 BKN039 BKN065 19/16 A3026 RMK AO2

More Conditions Fewer Conditions

10-Day Weather Forecast

Almanac

Astronomy

Sep. 15, 2014 Rise Set
Actual Time 6:17 AM SST 6:18 PM SST
Civil Twilight 5:56 AM SST 6:39 PM SST
Nautical Twilight 5:31 AM SST 7:04 PM SST
Astronomical Twilight 5:06 AM SST 7:29 PM SST
Moon 12:03 AM SST (9/15) 11:47 AM SST (9/15)
Length of Visible Light 12h 43m
Length of Day
12h 01m
Tomorrow will be 0m 47s longer.
Waning Gibbous, 50% of the Moon is Illuminated
Today
Waning Gibbous
Sep 15
Last Quarter
Sep 24
New
Oct 1
First Quarter
Oct 8
Full

Community

WunderPhotos

Upload Photos

1,753,630 photos uploaded!

Nearby

Snow Depth

Station Depth Elevation
No new snow has been reported.

Earthquake Activity

City Distance Mag. Time & Date
No recent earthquake activity has been reported nearby.
Minimum magnitude displayed is 2.5.

Coastal Water Temperatures

Place Temperature
No Stations Reporting

Nearby Weather Stations